Time;durP1;ratioP1;P1;durP2;ratioP2;P2;SDS_P1;SDS_P2;PMS_P1;PMS_P2;Temp;Humidity;BMP_temperature;BMP_pressure;BME280_temperature;BME280_humidity;BME280_pressure;Samples;Min_cycle;Max_cycle;Signal;HPM_P1;HPM_P2
2024/03/14 00:01:26;;;;;;;12.13;11.33;;;13.00;38.20;;;;;;5068949;28;20426;-80
2024/03/14 00:03:54;;;;;;;11.90;11.20;;;13.10;38.10;;;;;;5065965;28;20184;-81
2024/03/14 00:06:22;;;;;;;11.23;10.73;;;13.10;37.80;;;;;;5066006;28;20490;-80
2024/03/14 00:08:48;;;;;;;11.00;10.40;;;13.10;37.70;;;;;;5069532;28;20464;-79
2024/03/14 00:11:13;;;;;;;11.67;10.90;;;13.10;37.40;;;;;;5069525;28;20418;-80
2024/03/14 00:13:39;;;;;;;11.50;10.90;;;13.10;37.30;;;;;;5064899;28;20208;-81
2024/03/14 00:16:05;;;;;;;10.87;10.37;;;13.10;37.60;;;;;;5066796;28;20280;-81
2024/03/14 00:18:31;;;;;;;11.33;10.73;;;13.10;37.50;;;;;;5068210;28;20208;-80
2024/03/14 00:20:56;;;;;;;11.30;10.70;;;13.10;37.40;;;;;;5065109;28;20172;-81
2024/03/14 00:23:23;;;;;;;10.87;10.27;;;13.10;37.60;;;;;;5066520;28;20836;-81
2024/03/14 00:25:51;;;;;;;12.07;11.27;;;13.10;37.60;;;;;;5069999;28;20202;-79
2024/03/14 00:28:16;;;;;;;11.17;10.63;;;13.10;37.70;;;;;;5070067;28;20446;-80
2024/03/14 00:30:42;;;;;;;10.83;10.23;;;13.10;37.30;;;;;;5066524;28;20425;-81
2024/03/14 00:33:07;;;;;;;11.03;10.43;;;13.10;37.40;;;;;;5064912;28;20486;-80
2024/03/14 00:35:33;;;;;;;11.30;10.80;;;13.00;37.40;;;;;;5067629;28;20671;-81
2024/03/14 00:37:59;;;;;;;11.50;10.90;;;13.00;37.90;;;;;;5068871;28;20336;-81
2024/03/14 00:40:25;;;;;;;11.30;10.80;;;13.00;38.10;;;;;;5069226;28;20171;-80
2024/03/14 00:42:51;;;;;;;11.77;11.17;;;13.00;37.70;;;;;;5066118;28;20921;-80
2024/03/14 00:45:19;;;;;;;11.47;10.77;;;12.90;37.70;;;;;;5066881;28;20278;-80
2024/03/14 00:47:45;;;;;;;11.83;11.23;;;12.90;37.80;;;;;;5069353;28;20429;-81
2024/03/14 00:50:11;;;;;;;11.87;11.27;;;12.90;37.90;;;;;;5071031;28;20427;-81
2024/03/14 00:52:37;;;;;;;11.10;10.50;;;12.90;37.70;;;;;;5067755;28;20483;-80
2024/03/14 00:55:05;;;;;;;11.50;10.90;;;12.90;37.70;;;;;;5065856;28;20206;-81
2024/03/14 00:57:30;;;;;;;11.37;10.67;;;12.90;37.10;;;;;;5068240;28;20434;-79
2024/03/14 00:59:56;;;;;;;12.03;11.43;;;12.70;37.20;;;;;;5075505;28;20530;-80
2024/03/14 01:02:21;;;;;;;10.87;10.37;;;12.50;38.00;;;;;;5076582;28;20187;-78
2024/03/14 01:04:49;;;;;;;11.47;10.90;;;12.40;38.80;;;;;;5074006;28;20184;-79
2024/03/14 01:07:15;;;;;;;12.30;11.57;;;12.20;39.70;;;;;;5073847;28;20207;-81
2024/03/14 01:09:40;;;;;;;13.20;12.40;;;12.20;40.20;;;;;;5082914;28;20434;-80
2024/03/14 01:12:06;;;;;;;12.10;11.37;;;12.30;40.50;;;;;;5070048;28;20202;-80
2024/03/14 01:14:31;;;;;;;11.27;10.67;;;12.40;40.10;;;;;;5065009;28;20176;-79
2024/03/14 01:16:58;;;;;;;10.60;10.10;;;12.50;39.60;;;;;;5064820;28;20275;-80
2024/03/14 01:19:25;;;;;;;11.70;11.10;;;12.50;39.40;;;;;;5064266;28;20186;-80
2024/03/14 01:21:51;;;;;;;12.77;12.07;;;12.50;38.50;;;;;;5066094;28;20445;-80
2024/03/14 01:24:16;;;;;;;12.27;11.63;;;12.30;39.20;;;;;;5066231;28;20911;-80
2024/03/14 01:26:42;;;;;;;12.67;12.07;;;12.30;39.60;;;;;;5073258;28;20955;-81
2024/03/14 01:29:08;;;;;;;12.20;11.43;;;12.20;40.20;;;;;;5065179;28;20237;-79
2024/03/14 01:31:33;;;;;;;11.67;11.10;;;12.00;40.80;;;;;;5065389;28;20466;-80
2024/03/14 01:33:59;;;;;;;11.70;11.20;;;12.10;41.00;;;;;;5066312;28;20179;-80
2024/03/14 01:36:24;;;;;;;12.57;11.87;;;12.10;40.70;;;;;;5067778;28;20206;-81
2024/03/14 01:38:51;;;;;;;13.67;12.87;;;12.00;40.60;;;;;;5064499;28;20274;-80
2024/03/14 01:41:21;;;;;;;12.97;12.10;;;12.00;40.70;;;;;;5064860;28;20227;-81
2024/03/14 01:43:58;;;;;;;13.60;12.80;;;11.90;41.40;;;;;;5066762;28;20418;-80
2024/03/14 01:46:31;;;;;;;13.80;13.10;;;11.80;42.30;;;;;;5068080;28;20444;-80
2024/03/14 01:48:57;;;;;;;12.27;11.77;;;11.80;42.60;;;;;;5068202;28;20429;-80
2024/03/14 01:51:24;;;;;;;13.17;12.47;;;11.70;42.90;;;;;;5067090;28;20499;-80
2024/03/14 01:53:50;;;;;;;12.23;11.53;;;11.70;43.10;;;;;;5064211;28;20942;-80
2024/03/14 01:56:17;;;;;;;12.30;11.70;;;11.70;43.10;;;;;;5064175;28;20526;-79
2024/03/14 01:58:43;;;;;;;13.80;13.10;;;11.70;43.10;;;;;;5063522;28;20422;-80
2024/03/14 02:01:12;;;;;;;11.60;11.00;;;11.80;42.80;;;;;;5063477;28;20796;-81
2024/03/14 02:03:38;;;;;;;13.23;12.50;;;11.80;42.00;;;;;;5065498;28;20434;-81
2024/03/14 02:06:12;;;;;;;12.67;12.07;;;11.70;43.10;;;;;;5080827;28;20437;-80
2024/03/14 02:08:38;;;;;;;13.53;12.70;;;11.70;43.10;;;;;;5083449;28;20428;-80
2024/03/14 02:11:04;;;;;;;14.03;13.20;;;11.70;43.10;;;;;;5083477;28;20414;-80
2024/03/14 02:13:30;;;;;;;11.77;11.07;;;11.70;43.10;;;;;;5082449;28;20226;-80
2024/03/14 02:15:55;;;;;;;13.60;12.80;;;11.80;43.20;;;;;;5085768;28;20462;-80
2024/03/14 02:18:21;;;;;;;13.03;12.33;;;11.80;42.60;;;;;;5079832;28;20661;-79
2024/03/14 02:20:46;;;;;;;13.37;12.50;;;11.90;42.10;;;;;;5063625;28;20980;-79
2024/03/14 02:23:12;;;;;;;13.97;13.27;;;11.90;42.30;;;;;;5060051;28;20211;-78
2024/03/14 02:25:37;;;;;;;13.67;12.87;;;12.10;42.10;;;;;;5063227;28;20231;-79
2024/03/14 02:28:03;;;;;;;12.10;11.40;;;12.00;40.30;;;;;;5065330;28;20229;-79
2024/03/14 02:30:29;;;;;;;11.60;11.10;;;12.10;40.60;;;;;;5064725;28;20187;-79
2024/03/14 02:32:55;;;;;;;12.60;12.00;;;12.20;39.80;;;;;;5062421;28;20988;-80
2024/03/14 02:35:20;;;;;;;11.97;11.37;;;12.20;39.40;;;;;;5061734;28;20422;-79
2024/03/14 02:37:46;;;;;;;12.57;11.87;;;12.30;39.20;;;;;;5063888;28;22445;-80
2024/03/14 02:40:12;;;;;;;12.80;12.10;;;12.40;38.80;;;;;;5064687;28;20191;-80
2024/03/14 02:42:37;;;;;;;12.40;11.60;;;12.30;37.60;;;;;;5062772;28;20235;-79
2024/03/14 02:45:07;;;;;;;11.63;11.13;;;12.10;37.90;;;;;;5061758;28;20651;-79
2024/03/14 02:47:33;;;;;;;12.13;11.53;;;12.00;38.00;;;;;;5062432;28;20796;-80
2024/03/14 02:49:58;;;;;;;13.80;12.90;;;12.00;38.40;;;;;;5065177;28;20575;-80
2024/03/14 02:52:26;;;;;;;12.77;11.90;;;11.90;39.20;;;;;;5065185;28;20211;-80
2024/03/14 02:54:52;;;;;;;12.53;11.93;;;11.90;38.70;;;;;;5061102;28;20469;-80
2024/03/14 02:57:19;;;;;;;12.50;11.90;;;11.80;39.40;;;;;;5059131;28;20473;-80
2024/03/14 02:59:45;;;;;;;12.27;11.20;;;11.80;39.60;;;;;;5063416;28;20187;-80
2024/03/14 03:02:15;;;;;;;12.67;11.97;;;11.80;40.10;;;;;;5062731;28;20440;-80
2024/03/14 03:04:44;;;;;;;13.03;12.27;;;11.90;40.00;;;;;;5063119;28;20172;-80
2024/03/14 03:07:10;;;;;;;11.70;11.10;;;12.00;39.40;;;;;;5066030;28;20456;-80
2024/03/14 03:09:37;;;;;;;11.83;11.33;;;12.10;38.90;;;;;;5066405;28;20429;-80
2024/03/14 03:12:04;;;;;;;11.30;10.80;;;12.20;38.40;;;;;;5063093;28;20464;-80
2024/03/14 03:14:29;;;;;;;12.97;12.37;;;12.30;38.70;;;;;;5064110;28;20530;-80
2024/03/14 03:16:55;;;;;;;12.47;11.97;;;12.30;37.40;;;;;;5068292;28;20528;-80
2024/03/14 03:19:20;;;;;;;11.90;11.30;;;12.30;37.30;;;;;;5069523;28;20187;-80
2024/03/14 03:21:46;;;;;;;11.50;10.90;;;12.30;37.10;;;;;;5065987;28;20179;-80
2024/03/14 03:24:12;;;;;;;11.80;11.10;;;12.30;36.60;;;;;;5065509;28;20206;-80
2024/03/14 03:26:41;;;;;;;12.37;11.77;;;12.10;36.50;;;;;;5066762;28;20710;-80
2024/03/14 03:29:06;;;;;;;12.00;11.40;;;11.80;37.40;;;;;;5069192;28;20425;-80
2024/03/14 03:31:32;;;;;;;12.20;11.70;;;11.80;38.50;;;;;;5068957;28;20427;-79
2024/03/14 03:33:57;;;;;;;12.00;11.33;;;11.80;38.50;;;;;;5064729;28;20250;-80
2024/03/14 03:36:23;;;;;;;13.57;12.87;;;11.90;38.10;;;;;;5064475;28;20624;-80
2024/03/14 03:38:49;;;;;;;13.30;12.60;;;11.90;38.20;;;;;;5067710;28;20255;-81
2024/03/14 03:41:15;;;;;;;12.60;11.90;;;11.80;38.00;;;;;;5068771;28;20207;-80
2024/03/14 03:43:41;;;;;;;11.73;11.20;;;11.90;38.40;;;;;;5067071;28;20845;-80
2024/03/14 03:46:09;;;;;;;12.93;12.33;;;11.90;38.20;;;;;;5065580;28;20513;-80
2024/03/14 03:48:37;;;;;;;12.07;11.43;;;12.00;37.50;;;;;;5065131;28;20192;-81
2024/03/14 03:51:05;;;;;;;12.87;12.17;;;12.10;37.50;;;;;;5069268;28;20507;-80
2024/03/14 03:53:33;;;;;;;12.90;12.30;;;12.00;36.60;;;;;;5068648;28;20459;-80
2024/03/14 03:56:04;;;;;;;12.97;12.37;;;12.00;37.00;;;;;;5065350;28;20706;-80
2024/03/14 03:58:32;;;;;;;12.50;11.90;;;12.10;36.90;;;;;;5065678;28;20426;-80
2024/03/14 04:01:06;;;;;;;12.43;11.73;;;12.10;36.60;;;;;;5065404;28;20862;-81
2024/03/14 04:03:34;;;;;;;13.40;12.70;;;12.20;36.20;;;;;;5064885;28;20430;-80
2024/03/14 04:06:00;;;;;;;11.97;11.37;;;12.00;35.60;;;;;;5068849;28;20467;-80
2024/03/14 04:08:26;;;;;;;13.00;12.40;;;11.90;36.00;;;;;;5067344;28;20635;-80
2024/03/14 04:10:51;;;;;;;13.50;12.80;;;11.70;35.90;;;;;;5064874;28;20429;-81
2024/03/14 04:13:17;;;;;;;13.47;12.77;;;11.60;36.60;;;;;;5064333;28;20813;-80
2024/03/14 04:15:56;;;;;;;12.80;12.20;;;11.60;36.10;;;;;;5066415;28;20208;-80
2024/03/14 04:18:22;;;;;;;14.30;13.60;;;11.60;36.80;;;;;;5068460;28;20232;-80
2024/03/14 04:20:47;;;;;;;13.90;13.30;;;11.70;36.50;;;;;;5066386;28;20516;-80
2024/03/14 04:23:13;;;;;;;13.87;12.90;;;11.80;36.20;;;;;;5064726;28;20229;-81
2024/03/14 04:25:38;;;;;;;13.30;12.60;;;12.00;35.50;;;;;;5065716;28;20686;-79
2024/03/14 04:28:07;;;;;;;12.70;12.10;;;12.10;35.40;;;;;;5066755;28;20215;-80
2024/03/14 04:30:32;;;;;;;12.87;12.27;;;12.20;35.40;;;;;;5068094;28;20263;-80
2024/03/14 04:32:58;;;;;;;12.83;12.20;;;12.30;34.20;;;;;;5064728;28;20474;-80
2024/03/14 04:35:24;;;;;;;12.33;11.83;;;12.40;33.60;;;;;;5064884;28;20203;-80
2024/03/14 04:37:51;;;;;;;13.30;12.80;;;12.40;32.70;;;;;;5067011;28;20243;-81
2024/03/14 04:40:19;;;;;;;12.37;11.67;;;12.40;32.20;;;;;;5070512;28;20426;-80
2024/03/14 04:42:46;;;;;;;12.27;11.67;;;12.10;31.90;;;;;;5065612;28;20492;-81
2024/03/14 04:45:17;;;;;;;12.23;11.70;;;11.90;32.10;;;;;;5068222;28;20429;-81
2024/03/14 04:47:44;;;;;;;14.10;13.50;;;11.60;32.90;;;;;;5067017;28;20441;-81
2024/03/14 04:50:10;;;;;;;13.40;12.80;;;11.30;34.80;;;;;;5065075;28;20550;-81
2024/03/14 04:52:39;;;;;;;13.43;12.83;;;11.00;35.10;;;;;;5065138;28;20536;-80
2024/03/14 04:55:08;;;;;;;14.47;13.77;;;10.70;36.20;;;;;;5069184;28;20198;-81
2024/03/14 04:57:40;;;;;;;12.87;12.27;;;10.70;37.30;;;;;;5067284;28;20844;-80
2024/03/14 05:03:09;;;;;;;13.60;13.00;;;10.70;36.70;;;;;;5063674;28;20418;-82
2024/03/14 05:05:35;;;;;;;13.80;13.20;;;10.50;37.90;;;;;;5063889;28;20463;-80
2024/03/14 05:08:00;;;;;;;13.70;13.10;;;10.40;38.30;;;;;;5087405;22;20490;-80
2024/03/14 05:10:26;;;;;;;14.00;13.40;;;10.30;38.00;;;;;;5058215;28;20487;-80
2024/03/14 05:12:52;;;;;;;13.30;12.60;;;10.20;39.20;;;;;;5065874;28;20267;-80
2024/03/14 05:15:17;;;;;;;14.33;13.63;;;10.10;39.70;;;;;;5046095;28;20236;-80
2024/03/14 05:17:44;;;;;;;13.23;12.63;;;10.00;39.50;;;;;;5061453;28;20883;-79
2024/03/14 05:20:10;;;;;;;13.53;12.93;;;10.10;40.20;;;;;;5056135;28;20681;-80
2024/03/14 05:22:38;;;;;;;13.50;12.80;;;10.10;39.40;;;;;;5059760;28;20438;-79
2024/03/14 05:25:06;;;;;;;15.53;14.73;;;9.90;40.10;;;;;;5054877;28;20439;-79
2024/03/14 05:27:31;;;;;;;14.40;13.60;;;9.80;40.80;;;;;;5063451;28;20470;-79
2024/03/14 05:29:57;;;;;;;14.50;13.80;;;9.70;41.70;;;;;;5063465;28;20426;-79
2024/03/14 05:32:27;;;;;;;14.53;13.73;;;9.70;42.30;;;;;;5061394;28;20203;-79
2024/03/14 05:34:53;;;;;;;14.70;13.97;;;9.70;42.30;;;;;;5060496;28;20192;-80
2024/03/14 05:37:24;;;;;;;15.40;14.60;;;9.60;42.20;;;;;;5053479;28;20648;-79
2024/03/14 05:39:50;;;;;;;16.80;15.90;;;9.70;42.30;;;;;;5050836;28;20438;-79
2024/03/14 05:42:18;;;;;;;14.23;13.53;;;9.60;42.20;;;;;;5055113;28;21008;-80
2024/03/14 05:44:44;;;;;;;14.70;13.90;;;9.60;43.30;;;;;;5051624;28;20204;-80
2024/03/14 05:47:10;;;;;;;15.07;14.27;;;9.70;42.30;;;;;;5053662;28;20870;-80
2024/03/14 05:49:36;;;;;;;15.20;14.40;;;9.90;42.50;;;;;;5059240;28;20439;-79
2024/03/14 05:52:03;;;;;;;15.90;15.10;;;10.00;41.00;;;;;;5047239;28;20671;-80
2024/03/14 05:54:29;;;;;;;16.70;15.70;;;10.20;40.90;;;;;;5052621;28;20488;-80
2024/03/14 05:56:55;;;;;;;15.10;14.30;;;10.30;39.90;;;;;;5057868;28;20454;-80
2024/03/14 05:59:21;;;;;;;15.20;14.40;;;10.40;39.10;;;;;;5057877;28;20426;-79
2024/03/14 06:01:47;;;;;;;16.23;15.33;;;10.50;38.50;;;;;;5049779;28;20431;-80
2024/03/14 06:04:13;;;;;;;17.63;16.63;;;10.70;38.10;;;;;;5058353;28;20643;-80
2024/03/14 06:06:39;;;;;;;16.00;15.10;;;10.80;37.30;;;;;;5057884;28;20462;-79
2024/03/14 06:09:05;;;;;;;17.03;16.00;;;10.80;36.30;;;;;;5034805;28;20440;-80
2024/03/14 06:11:34;;;;;;;18.07;16.97;;;10.70;37.30;;;;;;5048672;28;20930;-80
2024/03/14 06:13:59;;;;;;;16.23;15.23;;;10.40;38.10;;;;;;5057058;28;20290;-80
2024/03/14 06:16:28;;;;;;;17.33;16.33;;;10.50;39.10;;;;;;5055590;28;21040;-80
2024/03/14 06:18:54;;;;;;;19.23;18.07;;;10.50;38.00;;;;;;5056995;28;20207;-80
2024/03/14 06:21:21;;;;;;;17.37;16.30;;;10.50;37.60;;;;;;5055928;28;20929;-80
2024/03/14 06:23:49;;;;;;;18.30;17.30;;;10.60;38.00;;;;;;5054107;28;20480;-80
2024/03/14 06:26:15;;;;;;;17.90;16.90;;;10.60;37.60;;;;;;5055856;28;20991;-79
2024/03/14 06:28:41;;;;;;;19.87;18.67;;;10.30;38.70;;;;;;5056470;28;20430;-80
2024/03/14 06:31:07;;;;;;;18.40;17.30;;;10.10;40.40;;;;;;5053208;28;20457;-80
2024/03/14 06:33:34;;;;;;;18.83;17.73;;;10.10;40.00;;;;;;5052119;28;20208;-79
2024/03/14 06:35:59;;;;;;;19.00;17.70;;;10.10;41.10;;;;;;5050227;28;20215;-80
2024/03/14 06:38:25;;;;;;;18.70;17.50;;;10.20;40.50;;;;;;5055681;28;20414;-79
2024/03/14 06:40:52;;;;;;;19.50;18.27;;;10.30;40.30;;;;;;5046887;28;20228;-80
2024/03/14 06:43:18;;;;;;;19.03;17.93;;;10.50;39.80;;;;;;5059798;28;20191;-80
2024/03/14 06:45:43;;;;;;;18.60;17.20;;;10.50;39.50;;;;;;5058453;28;20964;-80
2024/03/14 06:48:09;;;;;;;20.17;18.97;;;10.60;39.20;;;;;;5058833;28;20455;-80
2024/03/14 06:50:34;;;;;;;19.80;18.60;;;10.80;39.00;;;;;;5058577;28;20187;-80
2024/03/14 06:53:00;;;;;;;22.30;20.60;;;10.90;37.70;;;;;;5065640;28;20253;-80
2024/03/14 06:55:26;;;;;;;19.20;17.90;;;10.80;38.10;;;;;;5060245;28;20184;-80
2024/03/14 06:57:52;;;;;;;20.90;19.50;;;10.80;37.70;;;;;;5041831;28;20205;-81
2024/03/14 07:00:24;;;;;;;20.07;18.87;;;10.70;37.70;;;;;;5061569;28;20210;-81
2024/03/14 07:02:52;;;;;;;19.53;18.33;;;10.70;38.30;;;;;;5061909;28;20438;-80
2024/03/14 07:05:19;;;;;;;19.70;18.40;;;10.80;38.60;;;;;;5062617;28;20445;-81
2024/03/14 07:07:47;;;;;;;21.50;20.00;;;10.80;38.20;;;;;;5063081;28;20528;-80
2024/03/14 07:10:33;;;;;;;22.03;20.47;;;10.90;38.20;;;;;;5063984;28;20430;-80
2024/03/14 07:13:00;;;;;;;21.47;20.07;;;11.00;37.80;;;;;;5056726;28;20478;-81
2024/03/14 07:15:25;;;;;;;21.90;20.60;;;11.00;37.10;;;;;;5058389;28;20430;-81
2024/03/14 07:17:51;;;;;;;20.43;19.13;;;11.00;37.70;;;;;;5062379;28;20460;-81
2024/03/14 07:20:17;;;;;;;20.87;19.47;;;11.10;37.60;;;;;;5062672;28;20219;-82
2024/03/14 07:22:43;;;;;;;20.30;19.00;;;11.00;37.30;;;;;;5062407;28;20234;-80
2024/03/14 07:25:18;;;;;;;20.67;19.40;;;11.00;37.40;;;;;;5062347;28;20241;-80
2024/03/14 07:27:48;;;;;;;20.33;19.07;;;11.10;37.50;;;;;;5054726;28;20534;-81
2024/03/14 07:30:14;;;;;;;21.40;20.00;;;11.10;37.10;;;;;;5055984;28;20438;-83
2024/03/14 07:32:41;;;;;;;20.50;19.30;;;11.00;37.50;;;;;;5056410;28;20467;-80
2024/03/14 07:35:09;;;;;;;19.70;18.40;;;11.00;38.00;;;;;;5068254;28;20478;-80
2024/03/14 07:37:35;;;;;;;20.87;19.23;;;11.10;37.70;;;;;;5061561;28;20511;-81
2024/03/14 07:40:01;;;;;;;20.20;19.00;;;11.10;37.10;;;;;;5066110;28;20461;-81
2024/03/14 07:42:29;;;;;;;20.57;19.27;;;11.10;37.50;;;;;;5058741;28;20415;-81
2024/03/14 07:44:55;;;;;;;20.30;18.97;;;11.00;37.50;;;;;;5063662;28;20259;-81
2024/03/14 07:47:23;;;;;;;18.77;17.60;;;10.90;38.20;;;;;;5042900;28;20462;-82
2024/03/14 07:49:55;;;;;;;19.07;17.97;;;10.90;38.90;;;;;;5042929;28;20185;-80
2024/03/14 07:52:20;;;;;;;20.30;18.70;;;10.90;39.30;;;;;;5050436;28;20459;-82
2024/03/14 07:54:47;;;;;;;19.33;18.00;;;10.90;38.90;;;;;;5057231;28;20433;-82
2024/03/14 07:57:13;;;;;;;19.60;18.37;;;10.90;39.00;;;;;;5019097;28;20189;-82
2024/03/14 07:59:39;;;;;;;18.60;17.50;;;10.90;39.10;;;;;;5033203;28;20422;-82
2024/03/14 08:02:07;;;;;;;18.57;17.30;;;10.80;39.30;;;;;;5050142;28;20416;-83
2024/03/14 08:04:47;;;;;;;18.17;17.03;;;10.90;39.20;;;;;;5036957;28;20419;-81
2024/03/14 08:07:18;;;;;;;18.43;17.33;;;10.90;39.20;;;;;;5025801;28;20454;-82
2024/03/14 08:09:48;;;;;;;19.37;18.07;;;10.90;39.00;;;;;;5051230;28;20421;-84
2024/03/14 08:12:15;;;;;;;17.90;16.80;;;10.90;39.00;;;;;;5051689;28;20482;-83
2024/03/14 08:14:44;;;;;;;17.57;16.57;;;10.90;39.00;;;;;;5058331;28;20418;-81
2024/03/14 08:17:15;;;;;;;15.90;15.00;;;11.10;38.80;;;;;;5037691;28;20432;-81
2024/03/14 08:19:44;;;;;;;16.87;15.97;;;11.20;39.10;;;;;;5040227;28;20413;-81
2024/03/14 08:22:09;;;;;;;17.30;16.27;;;11.30;38.60;;;;;;5055211;28;20454;-81
2024/03/14 08:25:03;;;;;;;17.50;16.30;;;11.10;38.30;;;;;;5051596;28;20426;-83
2024/03/14 08:27:33;;;;;;;16.20;15.30;;;11.20;38.70;;;;;;5035733;28;20203;-84
2024/03/14 08:30:00;;;;;;;16.47;15.47;;;11.30;37.80;;;;;;5049087;28;20430;-82
2024/03/14 08:32:26;;;;;;;15.87;14.93;;;11.40;37.80;;;;;;5046885;28;20454;-83
2024/03/14 08:35:05;;;;;;;15.03;14.23;;;11.50;37.50;;;;;;5059211;28;20176;-83
2024/03/14 08:37:38;;;;;;;18.30;17.00;;;11.50;37.30;;;;;;5043921;28;20467;-83
2024/03/14 08:40:05;;;;;;;16.47;15.57;;;11.60;37.20;;;;;;5057313;28;20938;-82
2024/03/14 08:42:33;;;;;;;14.80;13.80;;;11.60;36.90;;;;;;5042473;28;20793;-82
2024/03/14 08:45:00;;;;;;;15.53;14.73;;;11.70;36.40;;;;;;5054635;28;20418;-82
2024/03/14 08:47:27;;;;;;;20.33;19.03;;;11.80;36.50;;;;;;5055430;28;20444;-83
2024/03/14 08:49:53;;;;;;;16.33;15.00;;;11.90;35.20;;;;;;5030766;28;20473;-82
2024/03/14 08:52:21;;;;;;;14.80;13.90;;;11.90;35.20;;;;;;5031410;28;20452;-83
2024/03/14 08:54:47;;;;;;;13.97;13.27;;;12.00;34.90;;;;;;5026065;28;20177;-83
2024/03/14 08:57:12;;;;;;;13.27;12.67;;;12.10;34.60;;;;;;5041951;28;20445;-82
2024/03/14 08:59:39;;;;;;;15.20;14.40;;;12.10;34.20;;;;;;5048180;28;20423;-82
2024/03/14 09:02:11;;;;;;;14.53;13.83;;;12.10;33.80;;;;;;5038102;28;20229;-83
2024/03/14 09:04:41;;;;;;;14.20;13.50;;;12.10;33.30;;;;;;5050929;28;20937;-82
2024/03/14 09:07:07;;;;;;;13.73;13.03;;;12.10;33.30;;;;;;5054837;28;20538;-83
2024/03/14 09:09:35;;;;;;;13.37;12.67;;;12.10;33.30;;;;;;5044254;28;20449;-83
2024/03/14 09:12:13;;;;;;;13.40;12.70;;;12.20;32.80;;;;;;5055728;28;20418;-82
2024/03/14 09:14:42;;;;;;;12.80;12.20;;;12.30;32.50;;;;;;5053679;28;20465;-82
2024/03/14 09:17:17;;;;;;;13.03;12.33;;;12.40;32.00;;;;;;5054714;28;20464;-82
2024/03/14 09:19:46;;;;;;;13.83;13.13;;;12.50;31.60;;;;;;5050893;28;20913;-82
2024/03/14 09:22:11;;;;;;;15.33;14.43;;;12.50;31.40;;;;;;5033085;28;20890;-81
2024/03/14 09:24:37;;;;;;;13.00;12.40;;;12.60;31.70;;;;;;5043874;28;20446;-82
2024/03/14 09:27:04;;;;;;;11.90;11.40;;;12.70;31.40;;;;;;5043408;28;20192;-83
2024/03/14 09:29:31;;;;;;;12.67;12.07;;;12.80;30.50;;;;;;5047761;28;20545;-84
2024/03/14 09:32:15;;;;;;;12.00;11.50;;;12.90;30.80;;;;;;5036804;28;20446;-85
2024/03/14 09:35:33;;;;;;;12.23;11.70;;;12.90;30.10;;;;;;5037259;28;20517;-83
2024/03/14 09:37:59;;;;;;;12.50;11.97;;;13.10;30.30;;;;;;5048644;28;20466;-83
2024/03/14 09:40:42;;;;;;;11.37;10.77;;;13.20;29.40;;;;;;5047274;28;20423;-84
2024/03/14 09:44:13;;;;;;;11.60;11.00;;;13.30;28.70;;;;;;5045705;28;20183;-84
2024/03/14 09:47:43;;;;;;;12.27;11.67;;;13.40;28.30;;;;;;4940969;29;20534;-85
2024/03/14 09:51:08;;;;;;;10.57;10.07;;;13.30;28.40;;;;;;4939553;29;20987;-83
2024/03/14 09:54:00;;;;;;;11.30;10.80;;;13.30;29.40;;;;;;4942953;29;20459;-83
2024/03/14 10:00:26;;;;;;;11.80;11.30;;;13.40;28.70;;;;;;4925979;29;20467;-82
2024/03/14 10:05:53;;;;;;;12.63;11.93;;;13.30;28.90;;;;;;4994279;28;20851;-82
2024/03/14 10:12:15;;;;;;;10.80;10.40;;;13.40;28.80;;;;;;4917887;29;20485;-82
2024/03/14 10:15:29;;;;;;;9.87;9.47;;;13.60;28.60;;;;;;4961950;28;20434;-82
2024/03/14 10:18:18;;;;;;;9.40;8.90;;;13.70;28.90;;;;;;4969639;28;21064;-83
2024/03/14 10:22:01;;;;;;;;;;;;;;;;;;;;;
2024/03/14 10:24:35;;;;;;;9.77;9.33;;;14.10;27.50;;;;;;5049894;28;20489;-84
2024/03/14 10:31:26;;;;;;;10.77;10.37;;;14.10;26.60;;;;;;4964221;28;20431;-82
2024/03/14 10:34:19;;;;;;;9.83;9.53;;;14.10;26.60;;;;;;4951665;29;20501;-82
2024/03/14 10:41:09;;;;;;;9.23;8.90;;;14.30;26.40;;;;;;4971200;28;20408;-82
2024/03/14 10:45:05;;;;;;;9.23;8.83;;;14.40;26.20;;;;;;5043928;28;20422;-84
2024/03/14 10:51:37;;;;;;;;;;;;;;;;;;;;;
2024/03/14 10:54:54;;;;;;;9.83;9.43;;;14.90;25.70;;;;;;4965693;28;20591;-84
2024/03/14 10:58:40;;;;;;;10.03;9.53;;;14.90;25.70;;;;;;4961308;28;20443;-83
2024/03/14 11:06:05;;;;;;;10.10;9.50;;;15.00;26.10;;;;;;4966202;28;20453;-82
2024/03/14 11:12:47;;;;;;;9.57;9.27;;;15.10;25.10;;;;;;4888098;29;20476;-83
2024/03/14 11:22:22;;;;;;;8.60;8.20;;;15.10;24.70;;;;;;4875105;29;20508;-83
2024/03/14 11:25:32;;;;;;;9.30;8.97;;;15.20;24.20;;;;;;4916993;28;20461;-83
2024/03/14 11:27:59;;;;;;;9.50;9.20;;;15.20;24.20;;;;;;5000922;28;20464;-82
2024/03/14 11:31:03;;;;;;;8.53;8.23;;;15.20;24.10;;;;;;5004634;28;20428;-82
2024/03/14 11:33:30;;;;;;;8.50;8.07;;;15.20;24.00;;;;;;4981129;28;20781;-83
2024/03/14 11:35:57;;;;;;;9.20;8.83;;;15.20;24.50;;;;;;4993388;28;20480;-83
2024/03/14 11:38:29;;;;;;;8.83;8.53;;;15.20;24.10;;;;;;5000779;28;20442;-82
2024/03/14 11:41:01;;;;;;;8.53;8.23;;;15.30;25.00;;;;;;5048268;28;20430;-82
2024/03/14 11:43:33;;;;;;;7.90;7.60;;;15.30;24.30;;;;;;5047007;28;20419;-83
2024/03/14 11:46:01;;;;;;;8.37;8.07;;;15.30;24.20;;;;;;5064712;28;20433;-82
2024/03/14 11:48:33;;;;;;;8.23;7.93;;;15.40;24.10;;;;;;5051706;28;20517;-83
2024/03/14 11:51:02;;;;;;;8.70;8.40;;;15.30;23.50;;;;;;5051748;28;20414;-83
2024/03/14 11:53:32;;;;;;;8.77;8.47;;;15.40;23.60;;;;;;5064370;28;20458;-83
2024/03/14 11:55:58;;;;;;;9.60;9.00;;;15.40;23.50;;;;;;5053062;28;20420;-83
2024/03/14 11:58:51;;;;;;;8.93;8.33;;;15.40;23.10;;;;;;5049014;28;20440;-84
2024/03/14 12:01:16;;;;;;;7.83;7.53;;;15.50;23.80;;;;;;5036374;28;20424;-84
2024/03/14 12:03:42;;;;;;;8.80;8.30;;;15.50;23.10;;;;;;5056910;28;20486;-84
2024/03/14 12:06:10;;;;;;;8.63;8.33;;;15.60;22.90;;;;;;5051546;28;20668;-83
2024/03/14 12:08:41;;;;;;;8.37;8.07;;;15.60;22.80;;;;;;5048278;28;20663;-83
2024/03/14 12:11:09;;;;;;;9.17;8.77;;;15.70;23.60;;;;;;5058878;28;20455;-83
2024/03/14 12:13:35;;;;;;;8.80;8.30;;;15.70;23.50;;;;;;5054363;28;20469;-83
2024/03/14 12:16:02;;;;;;;8.93;8.63;;;15.70;23.40;;;;;;5041474;28;20471;-83
2024/03/14 12:18:35;;;;;;;9.00;8.60;;;15.80;23.60;;;;;;5062291;28;20485;-82
2024/03/14 12:21:14;;;;;;;9.43;9.10;;;15.80;23.00;;;;;;5055412;28;20443;-83
2024/03/14 12:23:52;;;;;;;9.57;9.13;;;15.80;23.00;;;;;;5054022;28;20415;-82
2024/03/14 12:26:18;;;;;;;9.67;9.23;;;15.90;23.20;;;;;;5064402;28;20453;-82
2024/03/14 12:28:44;;;;;;;8.60;8.30;;;15.90;23.10;;;;;;5054295;28;20509;-82
2024/03/14 12:31:13;;;;;;;9.13;8.83;;;15.90;21.40;;;;;;5059536;28;20418;-81
2024/03/14 12:33:41;;;;;;;9.47;8.90;;;16.00;21.60;;;;;;5047381;28;20238;-82
2024/03/14 12:36:09;;;;;;;9.17;8.67;;;16.00;21.80;;;;;;5057635;28;20501;-82
2024/03/14 12:38:35;;;;;;;8.87;8.47;;;16.10;21.80;;;;;;5054215;28;20415;-82
2024/03/14 12:41:02;;;;;;;8.47;8.10;;;16.10;22.40;;;;;;5058320;28;20423;-82
2024/03/14 12:43:30;;;;;;;7.30;7.10;;;16.10;20.20;;;;;;5053481;28;20414;-82
2024/03/14 12:45:56;;;;;;;8.17;7.87;;;16.10;19.90;;;;;;5047893;28;20838;-82
2024/03/14 12:48:22;;;;;;;8.10;7.80;;;16.20;19.20;;;;;;5058141;28;20454;-82
2024/03/14 12:50:53;;;;;;;8.50;7.97;;;16.30;19.30;;;;;;5058142;28;20180;-82
2024/03/14 12:53:19;;;;;;;8.70;8.40;;;16.40;19.30;;;;;;5050095;28;20810;-82
2024/03/14 12:55:52;;;;;;;8.97;8.67;;;16.40;19.00;;;;;;5054172;28;20435;-81
2024/03/14 12:58:21;;;;;;;9.50;9.20;;;16.50;19.30;;;;;;5052668;28;20438;-81
2024/03/14 13:00:54;;;;;;;8.73;8.43;;;16.50;18.70;;;;;;5051703;28;20427;-84
2024/03/14 13:03:25;;;;;;;8.27;7.97;;;16.50;18.80;;;;;;5057960;28;20457;-83
2024/03/14 13:05:50;;;;;;;8.80;8.50;;;16.50;19.30;;;;;;5048072;28;20882;-80
2024/03/14 13:08:20;;;;;;;8.60;8.33;;;16.50;19.30;;;;;;5044561;28;20444;-80
2024/03/14 13:10:46;;;;;;;9.50;9.20;;;16.50;19.90;;;;;;5057583;28;20191;-83
2024/03/14 13:13:16;;;;;;;8.30;8.10;;;16.50;19.30;;;;;;5056558;28;20493;-83
2024/03/14 13:15:46;;;;;;;9.07;8.70;;;16.60;19.60;;;;;;5041871;28;20179;-84
2024/03/14 13:18:18;;;;;;;8.53;8.23;;;16.60;20.00;;;;;;5049995;28;20427;-84
2024/03/14 13:20:55;;;;;;;9.30;8.80;;;16.50;19.30;;;;;;5046576;28;20426;-84
2024/03/14 13:23:20;;;;;;;8.43;8.03;;;16.50;20.10;;;;;;5060229;28;20414;-83
2024/03/14 13:25:46;;;;;;;8.47;8.17;;;16.60;19.00;;;;;;5060347;28;20449;-86
2024/03/14 13:28:12;;;;;;;7.80;7.60;;;16.60;19.40;;;;;;5053827;28;20201;-83
2024/03/14 13:30:38;;;;;;;7.50;7.20;;;16.60;19.40;;;;;;5052105;28;20502;-83